sensor_id;sensor_type;location;lat;lon;timestamp;P1;durP1;ratioP1;P2;durP2;ratioP2
2161;SDS011;1087;50.226;8.682;2023-03-30T00:01:50;5.07;;;4.57;;
2161;SDS011;1087;50.226;8.682;2023-03-30T00:04:18;5.27;;;4.17;;
2161;SDS011;1087;50.226;8.682;2023-03-30T00:06:46;4.70;;;3.90;;
2161;SDS011;1087;50.226;8.682;2023-03-30T00:09:12;8.07;;;4.97;;
2161;SDS011;1087;50.226;8.682;2023-03-30T00:11:38;5.23;;;4.33;;
2161;SDS011;1087;50.226;8.682;2023-03-30T00:14:04;6.20;;;4.57;;
2161;SDS011;1087;50.226;8.682;2023-03-30T00:16:29;4.87;;;4.33;;
2161;SDS011;1087;50.226;8.682;2023-03-30T00:18:55;5.63;;;5.03;;
2161;SDS011;1087;50.226;8.682;2023-03-30T00:21:21;6.17;;;4.27;;
2161;SDS011;1087;50.226;8.682;2023-03-30T00:23:47;7.40;;;4.10;;
2161;SDS011;1087;50.226;8.682;2023-03-30T00:26:13;5.87;;;4.53;;
2161;SDS011;1087;50.226;8.682;2023-03-30T00:28:39;7.80;;;5.00;;
2161;SDS011;1087;50.226;8.682;2023-03-30T00:31:04;4.47;;;3.97;;
2161;SDS011;1087;50.226;8.682;2023-03-30T00:33:30;4.87;;;3.87;;
2161;SDS011;1087;50.226;8.682;2023-03-30T00:35:56;7.03;;;4.70;;
2161;SDS011;1087;50.226;8.682;2023-03-30T00:38:23;6.10;;;5.03;;
2161;SDS011;1087;50.226;8.682;2023-03-30T00:40:54;4.77;;;3.73;;
2161;SDS011;1087;50.226;8.682;2023-03-30T00:43:21;8.63;;;5.13;;
2161;SDS011;1087;50.226;8.682;2023-03-30T00:45:47;5.07;;;4.30;;
2161;SDS011;1087;50.226;8.682;2023-03-30T00:50:55;4.10;;;3.70;;
2161;SDS011;1087;50.226;8.682;2023-03-30T00:53:27;4.73;;;4.00;;
2161;SDS011;1087;50.226;8.682;2023-03-30T00:56:02;7.03;;;4.50;;
2161;SDS011;1087;50.226;8.682;2023-03-30T00:58:31;6.03;;;4.23;;
2161;SDS011;1087;50.226;8.682;2023-03-30T01:00:58;5.50;;;4.67;;
2161;SDS011;1087;50.226;8.682;2023-03-30T01:05:59;6.40;;;5.03;;
2161;SDS011;1087;50.226;8.682;2023-03-30T01:08:30;6.30;;;4.80;;
2161;SDS011;1087;50.226;8.682;2023-03-30T01:10:59;5.23;;;4.73;;
2161;SDS011;1087;50.226;8.682;2023-03-30T01:13:26;7.90;;;5.03;;
2161;SDS011;1087;50.226;8.682;2023-03-30T01:16:00;5.97;;;4.43;;
2161;SDS011;1087;50.226;8.682;2023-03-30T01:21:33;5.70;;;4.53;;
2161;SDS011;1087;50.226;8.682;2023-03-30T01:27:33;5.73;;;5.23;;
2161;SDS011;1087;50.226;8.682;2023-03-30T01:30:36;4.90;;;4.50;;
2161;SDS011;1087;50.226;8.682;2023-03-30T01:39:12;7.97;;;4.60;;
2161;SDS011;1087;50.226;8.682;2023-03-30T01:44:29;6.00;;;4.60;;
2161;SDS011;1087;50.226;8.682;2023-03-30T01:52:23;4.80;;;4.40;;
2161;SDS011;1087;50.226;8.682;2023-03-30T01:55:35;6.43;;;5.17;;
2161;SDS011;1087;50.226;8.682;2023-03-30T01:57:45;4.80;;;4.23;;
2161;SDS011;1087;50.226;8.682;2023-03-30T02:00:16;5.73;;;3.90;;
2161;SDS011;1087;50.226;8.682;2023-03-30T02:02:50;4.90;;;4.40;;
2161;SDS011;1087;50.226;8.682;2023-03-30T02:05:19;6.57;;;5.20;;
2161;SDS011;1087;50.226;8.682;2023-03-30T02:07:51;6.40;;;4.20;;
2161;SDS011;1087;50.226;8.682;2023-03-30T02:10:20;5.67;;;5.17;;
2161;SDS011;1087;50.226;8.682;2023-03-30T02:12:51;5.40;;;4.90;;
2161;SDS011;1087;50.226;8.682;2023-03-30T02:15:18;8.50;;;4.67;;
2161;SDS011;1087;50.226;8.682;2023-03-30T02:17:44;4.90;;;4.40;;
2161;SDS011;1087;50.226;8.682;2023-03-30T02:20:11;7.33;;;5.43;;
2161;SDS011;1087;50.226;8.682;2023-03-30T02:22:40;6.70;;;4.30;;
2161;SDS011;1087;50.226;8.682;2023-03-30T02:25:06;7.27;;;4.80;;
2161;SDS011;1087;50.226;8.682;2023-03-30T02:27:32;5.83;;;5.10;;
2161;SDS011;1087;50.226;8.682;2023-03-30T02:29:58;5.13;;;4.40;;
2161;SDS011;1087;50.226;8.682;2023-03-30T02:32:25;5.60;;;4.53;;
2161;SDS011;1087;50.226;8.682;2023-03-30T02:37:41;5.63;;;4.60;;
2161;SDS011;1087;50.226;8.682;2023-03-30T02:46:10;8.10;;;5.23;;
2161;SDS011;1087;50.226;8.682;2023-03-30T02:51:47;5.50;;;4.67;;
2161;SDS011;1087;50.226;8.682;2023-03-30T03:00:10;4.50;;;3.63;;
2161;SDS011;1087;50.226;8.682;2023-03-30T03:02:42;7.07;;;4.13;;
2161;SDS011;1087;50.226;8.682;2023-03-30T03:05:11;5.13;;;4.10;;
2161;SDS011;1087;50.226;8.682;2023-03-30T03:07:39;6.70;;;4.90;;
2161;SDS011;1087;50.226;8.682;2023-03-30T03:10:05;4.40;;;3.87;;
2161;SDS011;1087;50.226;8.682;2023-03-30T03:12:32;7.10;;;4.30;;
2161;SDS011;1087;50.226;8.682;2023-03-30T03:14:58;6.93;;;4.97;;
2161;SDS011;1087;50.226;8.682;2023-03-30T03:17:26;4.93;;;4.47;;
2161;SDS011;1087;50.226;8.682;2023-03-30T03:19:58;5.00;;;4.20;;
2161;SDS011;1087;50.226;8.682;2023-03-30T03:22:28;7.60;;;4.97;;
2161;SDS011;1087;50.226;8.682;2023-03-30T03:24:54;6.80;;;4.10;;
2161;SDS011;1087;50.226;8.682;2023-03-30T03:27:19;5.47;;;4.97;;
2161;SDS011;1087;50.226;8.682;2023-03-30T03:29:45;7.80;;;5.30;;
2161;SDS011;1087;50.226;8.682;2023-03-30T03:32:11;6.27;;;4.80;;
2161;SDS011;1087;50.226;8.682;2023-03-30T03:34:37;6.37;;;5.00;;
2161;SDS011;1087;50.226;8.682;2023-03-30T03:37:03;5.37;;;4.40;;
2161;SDS011;1087;50.226;8.682;2023-03-30T03:39:29;8.30;;;5.47;;
2161;SDS011;1087;50.226;8.682;2023-03-30T03:41:55;5.13;;;4.30;;
2161;SDS011;1087;50.226;8.682;2023-03-30T03:44:21;7.00;;;4.67;;
2161;SDS011;1087;50.226;8.682;2023-03-30T03:46:46;5.23;;;4.60;;
2161;SDS011;1087;50.226;8.682;2023-03-30T03:49:12;5.37;;;4.40;;
2161;SDS011;1087;50.226;8.682;2023-03-30T03:51:37;7.40;;;4.43;;
2161;SDS011;1087;50.226;8.682;2023-03-30T03:54:03;7.13;;;4.40;;
2161;SDS011;1087;50.226;8.682;2023-03-30T03:56:29;6.27;;;4.90;;
2161;SDS011;1087;50.226;8.682;2023-03-30T03:58:55;4.63;;;4.17;;
2161;SDS011;1087;50.226;8.682;2023-03-30T04:01:20;4.33;;;3.93;;
2161;SDS011;1087;50.226;8.682;2023-03-30T04:03:46;7.90;;;4.57;;
2161;SDS011;1087;50.226;8.682;2023-03-30T04:06:11;4.57;;;4.17;;
2161;SDS011;1087;50.226;8.682;2023-03-30T04:08:37;4.87;;;4.47;;
2161;SDS011;1087;50.226;8.682;2023-03-30T04:11:04;8.97;;;4.97;;
2161;SDS011;1087;50.226;8.682;2023-03-30T04:13:34;7.87;;;5.60;;
2161;SDS011;1087;50.226;8.682;2023-03-30T04:15:59;3.70;;;3.23;;
2161;SDS011;1087;50.226;8.682;2023-03-30T04:18:25;6.73;;;3.97;;
2161;SDS011;1087;50.226;8.682;2023-03-30T04:20:57;9.00;;;4.67;;
2161;SDS011;1087;50.226;8.682;2023-03-30T04:23:45;5.70;;;4.33;;
2161;SDS011;1087;50.226;8.682;2023-03-30T04:26:13;7.73;;;4.63;;
2161;SDS011;1087;50.226;8.682;2023-03-30T04:28:39;8.17;;;4.60;;
2161;SDS011;1087;50.226;8.682;2023-03-30T04:31:06;5.37;;;4.30;;
2161;SDS011;1087;50.226;8.682;2023-03-30T04:33:34;5.67;;;4.50;;
2161;SDS011;1087;50.226;8.682;2023-03-30T04:36:09;9.93;;;5.33;;
2161;SDS011;1087;50.226;8.682;2023-03-30T04:38:41;9.57;;;5.17;;
2161;SDS011;1087;50.226;8.682;2023-03-30T04:41:09;7.67;;;4.80;;
2161;SDS011;1087;50.226;8.682;2023-03-30T04:43:37;6.40;;;4.70;;
2161;SDS011;1087;50.226;8.682;2023-03-30T04:46:03;6.87;;;4.70;;
2161;SDS011;1087;50.226;8.682;2023-03-30T04:48:28;5.23;;;4.53;;
2161;SDS011;1087;50.226;8.682;2023-03-30T04:50:54;6.90;;;4.80;;
2161;SDS011;1087;50.226;8.682;2023-03-30T04:53:20;6.43;;;4.53;;
2161;SDS011;1087;50.226;8.682;2023-03-30T04:55:47;6.40;;;5.00;;
2161;SDS011;1087;50.226;8.682;2023-03-30T04:58:14;8.70;;;6.30;;
2161;SDS011;1087;50.226;8.682;2023-03-30T05:00:40;8.00;;;6.03;;
2161;SDS011;1087;50.226;8.682;2023-03-30T05:03:06;6.07;;;5.40;;
2161;SDS011;1087;50.226;8.682;2023-03-30T05:05:31;10.53;;;5.03;;
2161;SDS011;1087;50.226;8.682;2023-03-30T05:07:57;8.00;;;4.43;;
2161;SDS011;1087;50.226;8.682;2023-03-30T05:10:23;6.40;;;5.30;;
2161;SDS011;1087;50.226;8.682;2023-03-30T05:12:49;13.37;;;5.37;;
2161;SDS011;1087;50.226;8.682;2023-03-30T05:15:18;5.83;;;4.70;;
2161;SDS011;1087;50.226;8.682;2023-03-30T05:17:44;5.40;;;4.73;;
2161;SDS011;1087;50.226;8.682;2023-03-30T05:20:09;8.40;;;5.70;;
2161;SDS011;1087;50.226;8.682;2023-03-30T05:22:35;5.60;;;4.30;;
2161;SDS011;1087;50.226;8.682;2023-03-30T05:25:02;6.90;;;4.50;;
2161;SDS011;1087;50.226;8.682;2023-03-30T05:27:28;5.63;;;4.33;;
2161;SDS011;1087;50.226;8.682;2023-03-30T05:29:53;5.83;;;4.27;;
2161;SDS011;1087;50.226;8.682;2023-03-30T05:32:19;9.47;;;5.83;;
2161;SDS011;1087;50.226;8.682;2023-03-30T05:34:45;9.93;;;5.20;;
2161;SDS011;1087;50.226;8.682;2023-03-30T05:37:11;6.00;;;5.10;;
2161;SDS011;1087;50.226;8.682;2023-03-30T05:39:37;9.70;;;6.00;;
2161;SDS011;1087;50.226;8.682;2023-03-30T05:42:03;6.60;;;5.57;;
2161;SDS011;1087;50.226;8.682;2023-03-30T05:44:29;8.17;;;5.47;;
2161;SDS011;1087;50.226;8.682;2023-03-30T05:46:55;10.90;;;5.80;;
2161;SDS011;1087;50.226;8.682;2023-03-30T05:49:20;10.43;;;6.10;;
2161;SDS011;1087;50.226;8.682;2023-03-30T05:51:46;8.53;;;5.50;;
2161;SDS011;1087;50.226;8.682;2023-03-30T05:54:12;9.00;;;6.00;;
2161;SDS011;1087;50.226;8.682;2023-03-30T05:56:38;9.80;;;6.03;;
2161;SDS011;1087;50.226;8.682;2023-03-30T05:59:06;6.63;;;5.23;;
2161;SDS011;1087;50.226;8.682;2023-03-30T06:01:34;8.90;;;5.87;;
2161;SDS011;1087;50.226;8.682;2023-03-30T06:04:00;9.00;;;5.30;;
2161;SDS011;1087;50.226;8.682;2023-03-30T06:06:27;7.13;;;5.40;;
2161;SDS011;1087;50.226;8.682;2023-03-30T06:08:52;13.17;;;5.87;;
2161;SDS011;1087;50.226;8.682;2023-03-30T06:11:18;9.10;;;4.93;;
2161;SDS011;1087;50.226;8.682;2023-03-30T06:13:44;9.63;;;4.93;;
2161;SDS011;1087;50.226;8.682;2023-03-30T06:16:09;10.63;;;5.30;;
2161;SDS011;1087;50.226;8.682;2023-03-30T06:18:35;8.33;;;5.30;;
2161;SDS011;1087;50.226;8.682;2023-03-30T06:21:01;10.70;;;4.03;;
2161;SDS011;1087;50.226;8.682;2023-03-30T06:23:30;7.50;;;4.63;;
2161;SDS011;1087;50.226;8.682;2023-03-30T06:25:57;10.00;;;5.90;;
2161;SDS011;1087;50.226;8.682;2023-03-30T06:28:23;12.33;;;5.30;;
2161;SDS011;1087;50.226;8.682;2023-03-30T06:30:49;9.53;;;5.50;;
2161;SDS011;1087;50.226;8.682;2023-03-30T06:33:15;11.87;;;7.97;;
2161;SDS011;1087;50.226;8.682;2023-03-30T06:35:45;10.60;;;6.10;;
2161;SDS011;1087;50.226;8.682;2023-03-30T06:38:12;8.43;;;6.23;;
2161;SDS011;1087;50.226;8.682;2023-03-30T06:40:38;10.50;;;6.13;;
2161;SDS011;1087;50.226;8.682;2023-03-30T06:43:05;14.47;;;6.70;;
2161;SDS011;1087;50.226;8.682;2023-03-30T06:45:31;12.23;;;6.33;;
2161;SDS011;1087;50.226;8.682;2023-03-30T06:47:56;17.00;;;6.53;;
2161;SDS011;1087;50.226;8.682;2023-03-30T06:50:22;9.13;;;5.73;;
2161;SDS011;1087;50.226;8.682;2023-03-30T06:52:47;14.93;;;6.53;;
2161;SDS011;1087;50.226;8.682;2023-03-30T06:55:13;11.77;;;6.60;;
2161;SDS011;1087;50.226;8.682;2023-03-30T06:57:39;9.37;;;6.17;;
2161;SDS011;1087;50.226;8.682;2023-03-30T07:00:06;10.63;;;5.53;;
2161;SDS011;1087;50.226;8.682;2023-03-30T07:02:37;11.10;;;6.20;;
2161;SDS011;1087;50.226;8.682;2023-03-30T07:05:06;8.27;;;6.20;;
2161;SDS011;1087;50.226;8.682;2023-03-30T07:07:32;7.90;;;5.50;;
2161;SDS011;1087;50.226;8.682;2023-03-30T07:09:58;8.90;;;5.00;;
2161;SDS011;1087;50.226;8.682;2023-03-30T07:12:24;9.47;;;5.53;;
2161;SDS011;1087;50.226;8.682;2023-03-30T07:14:50;8.03;;;5.67;;
2161;SDS011;1087;50.226;8.682;2023-03-30T07:17:15;10.27;;;6.60;;
2161;SDS011;1087;50.226;8.682;2023-03-30T07:19:41;9.50;;;5.97;;
2161;SDS011;1087;50.226;8.682;2023-03-30T07:22:07;9.73;;;4.90;;
2161;SDS011;1087;50.226;8.682;2023-03-30T07:24:33;6.43;;;4.73;;
2161;SDS011;1087;50.226;8.682;2023-03-30T07:26:59;12.10;;;5.23;;
2161;SDS011;1087;50.226;8.682;2023-03-30T07:29:24;11.10;;;5.80;;
2161;SDS011;1087;50.226;8.682;2023-03-30T07:31:52;8.00;;;4.33;;
2161;SDS011;1087;50.226;8.682;2023-03-30T07:34:20;7.47;;;4.33;;
2161;SDS011;1087;50.226;8.682;2023-03-30T07:36:45;8.70;;;5.63;;
2161;SDS011;1087;50.226;8.682;2023-03-30T07:39:11;9.10;;;5.70;;
2161;SDS011;1087;50.226;8.682;2023-03-30T07:41:37;11.17;;;4.57;;
2161;SDS011;1087;50.226;8.682;2023-03-30T07:44:02;7.30;;;4.50;;
2161;SDS011;1087;50.226;8.682;2023-03-30T07:46:28;5.90;;;4.67;;
2161;SDS011;1087;50.226;8.682;2023-03-30T07:48:53;14.63;;;5.33;;
2161;SDS011;1087;50.226;8.682;2023-03-30T07:51:19;7.90;;;5.00;;
2161;SDS011;1087;50.226;8.682;2023-03-30T07:53:46;8.10;;;4.20;;
2161;SDS011;1087;50.226;8.682;2023-03-30T07:56:12;10.30;;;5.30;;
2161;SDS011;1087;50.226;8.682;2023-03-30T07:58:37;8.83;;;5.20;;
2161;SDS011;1087;50.226;8.682;2023-03-30T08:01:03;8.33;;;5.73;;
2161;SDS011;1087;50.226;8.682;2023-03-30T08:03:29;9.40;;;5.80;;
2161;SDS011;1087;50.226;8.682;2023-03-30T08:05:59;9.00;;;5.40;;
2161;SDS011;1087;50.226;8.682;2023-03-30T08:08:28;7.73;;;5.70;;
2161;SDS011;1087;50.226;8.682;2023-03-30T08:10:54;7.70;;;4.30;;
2161;SDS011;1087;50.226;8.682;2023-03-30T08:13:20;7.13;;;4.23;;
2161;SDS011;1087;50.226;8.682;2023-03-30T08:15:46;8.83;;;5.43;;
2161;SDS011;1087;50.226;8.682;2023-03-30T08:18:12;8.00;;;4.60;;
2161;SDS011;1087;50.226;8.682;2023-03-30T08:20:39;8.00;;;4.10;;
2161;SDS011;1087;50.226;8.682;2023-03-30T08:23:06;8.47;;;4.70;;
2161;SDS011;1087;50.226;8.682;2023-03-30T08:25:35;9.70;;;5.30;;
2161;SDS011;1087;50.226;8.682;2023-03-30T08:28:01;6.53;;;4.77;;
2161;SDS011;1087;50.226;8.682;2023-03-30T08:30:29;9.00;;;5.77;;
2161;SDS011;1087;50.226;8.682;2023-03-30T08:32:55;6.83;;;4.87;;
2161;SDS011;1087;50.226;8.682;2023-03-30T08:35:21;9.73;;;4.60;;
2161;SDS011;1087;50.226;8.682;2023-03-30T08:37:47;6.57;;;4.70;;
2161;SDS011;1087;50.226;8.682;2023-03-30T08:40:13;5.00;;;4.33;;
2161;SDS011;1087;50.226;8.682;2023-03-30T08:45:30;5.70;;;4.63;;
2161;SDS011;1087;50.226;8.682;2023-03-30T08:48:02;5.30;;;4.80;;
2161;SDS011;1087;50.226;8.682;2023-03-30T08:50:34;8.60;;;5.20;;
2161;SDS011;1087;50.226;8.682;2023-03-30T08:53:02;6.53;;;4.80;;
2161;SDS011;1087;50.226;8.682;2023-03-30T08:55:40;6.70;;;4.97;;
2161;SDS011;1087;50.226;8.682;2023-03-30T08:58:17;9.17;;;4.83;;
2161;SDS011;1087;50.226;8.682;2023-03-30T09:00:48;8.07;;;5.17;;
2161;SDS011;1087;50.226;8.682;2023-03-30T09:03:28;7.93;;;5.10;;
2161;SDS011;1087;50.226;8.682;2023-03-30T09:06:05;11.27;;;5.00;;
2161;SDS011;1087;50.226;8.682;2023-03-30T09:08:46;6.80;;;4.80;;
2161;SDS011;1087;50.226;8.682;2023-03-30T09:11:15;6.00;;;4.97;;
2161;SDS011;1087;50.226;8.682;2023-03-30T09:13:48;7.70;;;5.63;;
2161;SDS011;1087;50.226;8.682;2023-03-30T09:16:17;5.50;;;5.00;;
2161;SDS011;1087;50.226;8.682;2023-03-30T09:18:59;6.30;;;5.50;;
2161;SDS011;1087;50.226;8.682;2023-03-30T09:21:27;4.77;;;4.33;;
2161;SDS011;1087;50.226;8.682;2023-03-30T09:23:56;6.53;;;5.27;;
2161;SDS011;1087;50.226;8.682;2023-03-30T09:26:41;5.27;;;4.77;;
2161;SDS011;1087;50.226;8.682;2023-03-30T09:29:38;5.67;;;4.90;;
2161;SDS011;1087;50.226;8.682;2023-03-30T09:32:21;5.63;;;4.90;;
2161;SDS011;1087;50.226;8.682;2023-03-30T09:37:31;6.67;;;4.90;;
2161;SDS011;1087;50.226;8.682;2023-03-30T09:40:01;6.63;;;4.50;;
2161;SDS011;1087;50.226;8.682;2023-03-30T09:42:57;5.70;;;5.03;;
2161;SDS011;1087;50.226;8.682;2023-03-30T09:45:32;6.30;;;4.70;;
2161;SDS011;1087;50.226;8.682;2023-03-30T09:48:05;6.40;;;5.30;;
2161;SDS011;1087;50.226;8.682;2023-03-30T09:50:36;5.80;;;4.43;;
2161;SDS011;1087;50.226;8.682;2023-03-30T09:53:17;6.00;;;5.40;;
2161;SDS011;1087;50.226;8.682;2023-03-30T09:55:53;5.00;;;4.50;;
2161;SDS011;1087;50.226;8.682;2023-03-30T09:58:39;8.13;;;4.97;;
2161;SDS011;1087;50.226;8.682;2023-03-30T10:01:09;4.33;;;3.93;;
2161;SDS011;1087;50.226;8.682;2023-03-30T10:03:37;6.20;;;5.03;;
2161;SDS011;1087;50.226;8.682;2023-03-30T10:06:05;5.83;;;4.83;;
2161;SDS011;1087;50.226;8.682;2023-03-30T10:08:32;5.17;;;4.27;;
2161;SDS011;1087;50.226;8.682;2023-03-30T10:11:12;6.87;;;4.30;;
2161;SDS011;1087;50.226;8.682;2023-03-30T10:13:43;6.60;;;4.63;;
2161;SDS011;1087;50.226;8.682;2023-03-30T10:16:19;6.00;;;4.67;;
2161;SDS011;1087;50.226;8.682;2023-03-30T10:18:54;7.07;;;5.50;;
2161;SDS011;1087;50.226;8.682;2023-03-30T10:21:25;5.23;;;4.20;;
2161;SDS011;1087;50.226;8.682;2023-03-30T10:23:59;6.03;;;5.30;;
2161;SDS011;1087;50.226;8.682;2023-03-30T10:26:29;7.80;;;4.87;;
2161;SDS011;1087;50.226;8.682;2023-03-30T10:28:56;5.37;;;4.87;;
2161;SDS011;1087;50.226;8.682;2023-03-30T10:31:27;7.53;;;4.90;;
2161;SDS011;1087;50.226;8.682;2023-03-30T10:33:54;5.50;;;4.63;;
2161;SDS011;1087;50.226;8.682;2023-03-30T10:36:22;4.93;;;4.47;;
2161;SDS011;1087;50.226;8.682;2023-03-30T10:38:59;5.33;;;4.47;;
2161;SDS011;1087;50.226;8.682;2023-03-30T10:41:49;5.73;;;5.20;;
2161;SDS011;1087;50.226;8.682;2023-03-30T10:44:17;7.43;;;4.43;;
2161;SDS011;1087;50.226;8.682;2023-03-30T10:46:59;6.20;;;4.53;;
2161;SDS011;1087;50.226;8.682;2023-03-30T10:52:30;6.57;;;4.53;;
2161;SDS011;1087;50.226;8.682;2023-03-30T10:55:20;6.43;;;5.17;;
2161;SDS011;1087;50.226;8.682;2023-03-30T10:58:05;6.60;;;5.43;;
2161;SDS011;1087;50.226;8.682;2023-03-30T11:03:19;8.30;;;4.43;;
2161;SDS011;1087;50.226;8.682;2023-03-30T11:05:50;9.90;;;4.77;;
2161;SDS011;1087;50.226;8.682;2023-03-30T11:08:19;6.67;;;4.40;;
2161;SDS011;1087;50.226;8.682;2023-03-30T11:10:53;6.87;;;4.53;;
2161;SDS011;1087;50.226;8.682;2023-03-30T11:13:22;5.77;;;4.93;;
2161;SDS011;1087;50.226;8.682;2023-03-30T11:15:53;7.83;;;4.30;;
2161;SDS011;1087;50.226;8.682;2023-03-30T11:23:51;6.30;;;4.60;;
2161;SDS011;1087;50.226;8.682;2023-03-30T11:26:21;5.60;;;4.50;;
2161;SDS011;1087;50.226;8.682;2023-03-30T11:29:16;4.43;;;3.67;;
2161;SDS011;1087;50.226;8.682;2023-03-30T11:32:10;5.13;;;3.90;;
2161;SDS011;1087;50.226;8.682;2023-03-30T11:43:07;7.83;;;2.97;;
2161;SDS011;1087;50.226;8.682;2023-03-30T11:45:48;3.27;;;2.10;;
2161;SDS011;1087;50.226;8.682;2023-03-30T11:51:44;2.87;;;2.23;;
2161;SDS011;1087;50.226;8.682;2023-03-30T11:54:29;4.27;;;2.60;;
2161;SDS011;1087;50.226;8.682;2023-03-30T12:05:22;5.37;;;2.60;;
2161;SDS011;1087;50.226;8.682;2023-03-30T12:10:27;5.43;;;2.40;;
2161;SDS011;1087;50.226;8.682;2023-03-30T12:13:13;3.70;;;2.20;;
2161;SDS011;1087;50.226;8.682;2023-03-30T12:15:47;4.37;;;2.10;;
2161;SDS011;1087;50.226;8.682;2023-03-30T12:20:58;3.73;;;2.10;;
2161;SDS011;1087;50.226;8.682;2023-03-30T12:24:01;5.97;;;2.50;;
2161;SDS011;1087;50.226;8.682;2023-03-30T12:26:39;4.00;;;2.00;;
2161;SDS011;1087;50.226;8.682;2023-03-30T12:34:20;2.90;;;1.57;;
2161;SDS011;1087;50.226;8.682;2023-03-30T12:36:47;3.87;;;1.70;;
2161;SDS011;1087;50.226;8.682;2023-03-30T12:39:19;2.43;;;1.30;;
2161;SDS011;1087;50.226;8.682;2023-03-30T12:44:34;1.17;;;0.70;;
2161;SDS011;1087;50.226;8.682;2023-03-30T13:01:18;0.97;;;0.80;;
2161;SDS011;1087;50.226;8.682;2023-03-30T13:03:58;4.53;;;1.20;;
2161;SDS011;1087;50.226;8.682;2023-03-30T13:12:20;1.97;;;1.00;;
2161;SDS011;1087;50.226;8.682;2023-03-30T13:14:56;2.17;;;1.40;;
2161;SDS011;1087;50.226;8.682;2023-03-30T13:18:21;1.90;;;0.90;;
2161;SDS011;1087;50.226;8.682;2023-03-30T13:20:29;1.67;;;1.57;;
2161;SDS011;1087;50.226;8.682;2023-03-30T13:22:59;1.10;;;0.97;;
2161;SDS011;1087;50.226;8.682;2023-03-30T13:25:43;4.50;;;1.67;;
2161;SDS011;1087;50.226;8.682;2023-03-30T13:31:17;2.67;;;2.00;;
2161;SDS011;1087;50.226;8.682;2023-03-30T13:34:11;1.70;;;1.13;;
2161;SDS011;1087;50.226;8.682;2023-03-30T13:37:18;1.67;;;1.50;;
2161;SDS011;1087;50.226;8.682;2023-03-30T13:42:49;1.90;;;1.20;;
2161;SDS011;1087;50.226;8.682;2023-03-30T13:51:18;2.20;;;1.07;;
2161;SDS011;1087;50.226;8.682;2023-03-30T13:53:54;2.50;;;1.40;;
2161;SDS011;1087;50.226;8.682;2023-03-30T13:56:28;2.33;;;1.50;;
2161;SDS011;1087;50.226;8.682;2023-03-30T13:59:02;2.57;;;1.90;;
2161;SDS011;1087;50.226;8.682;2023-03-30T14:01:30;3.03;;;1.20;;
2161;SDS011;1087;50.226;8.682;2023-03-30T14:03:58;5.30;;;1.50;;
2161;SDS011;1087;50.226;8.682;2023-03-30T14:06:27;2.00;;;1.27;;
2161;SDS011;1087;50.226;8.682;2023-03-30T14:14:02;2.17;;;1.10;;
2161;SDS011;1087;50.226;8.682;2023-03-30T14:16:35;1.47;;;1.20;;
2161;SDS011;1087;50.226;8.682;2023-03-30T14:21:45;3.60;;;1.67;;
2161;SDS011;1087;50.226;8.682;2023-03-30T14:24:13;1.97;;;1.50;;
2161;SDS011;1087;50.226;8.682;2023-03-30T14:26:41;3.30;;;1.27;;
2161;SDS011;1087;50.226;8.682;2023-03-30T14:29:12;2.13;;;1.40;;
2161;SDS011;1087;50.226;8.682;2023-03-30T14:31:41;2.73;;;1.60;;
2161;SDS011;1087;50.226;8.682;2023-03-30T14:37:01;2.10;;;1.37;;
2161;SDS011;1087;50.226;8.682;2023-03-30T14:39:30;4.17;;;1.20;;
2161;SDS011;1087;50.226;8.682;2023-03-30T14:41:57;4.20;;;1.50;;
2161;SDS011;1087;50.226;8.682;2023-03-30T14:44:32;2.23;;;1.67;;
2161;SDS011;1087;50.226;8.682;2023-03-30T14:47:04;2.13;;;1.50;;
2161;SDS011;1087;50.226;8.682;2023-03-30T14:49:30;2.33;;;1.20;;
2161;SDS011;1087;50.226;8.682;2023-03-30T14:52:00;1.90;;;1.30;;
2161;SDS011;1087;50.226;8.682;2023-03-30T14:54:31;2.53;;;1.63;;
2161;SDS011;1087;50.226;8.682;2023-03-30T14:56:59;1.57;;;1.20;;
2161;SDS011;1087;50.226;8.682;2023-03-30T14:59:27;2.50;;;1.37;;
2161;SDS011;1087;50.226;8.682;2023-03-30T15:01:56;4.43;;;1.60;;
2161;SDS011;1087;50.226;8.682;2023-03-30T15:04:23;2.30;;;1.30;;
2161;SDS011;1087;50.226;8.682;2023-03-30T15:06:52;4.30;;;1.50;;
2161;SDS011;1087;50.226;8.682;2023-03-30T15:09:20;2.80;;;1.40;;
2161;SDS011;1087;50.226;8.682;2023-03-30T15:11:51;2.90;;;1.70;;
2161;SDS011;1087;50.226;8.682;2023-03-30T15:14:23;5.53;;;1.47;;
2161;SDS011;1087;50.226;8.682;2023-03-30T15:16:53;1.90;;;1.40;;
2161;SDS011;1087;50.226;8.682;2023-03-30T15:19:33;2.50;;;1.30;;
2161;SDS011;1087;50.226;8.682;2023-03-30T15:24:49;1.33;;;1.23;;
2161;SDS011;1087;50.226;8.682;2023-03-30T15:27:16;1.83;;;1.30;;
2161;SDS011;1087;50.226;8.682;2023-03-30T15:29:42;1.93;;;1.70;;
2161;SDS011;1087;50.226;8.682;2023-03-30T15:34:34;2.03;;;1.30;;
2161;SDS011;1087;50.226;8.682;2023-03-30T15:37:00;1.93;;;1.57;;
2161;SDS011;1087;50.226;8.682;2023-03-30T15:39:26;8.30;;;2.27;;
2161;SDS011;1087;50.226;8.682;2023-03-30T15:42:04;2.50;;;1.40;;
2161;SDS011;1087;50.226;8.682;2023-03-30T15:44:35;2.20;;;1.37;;
2161;SDS011;1087;50.226;8.682;2023-03-30T15:47:03;4.63;;;1.50;;
2161;SDS011;1087;50.226;8.682;2023-03-30T15:49:40;3.10;;;1.87;;
2161;SDS011;1087;50.226;8.682;2023-03-30T15:52:12;2.03;;;1.03;;
2161;SDS011;1087;50.226;8.682;2023-03-30T15:54:46;2.07;;;1.47;;
2161;SDS011;1087;50.226;8.682;2023-03-30T15:59:57;3.47;;;1.40;;
2161;SDS011;1087;50.226;8.682;2023-03-30T16:04:56;1.97;;;1.30;;
2161;SDS011;1087;50.226;8.682;2023-03-30T16:07:22;4.07;;;1.80;;
2161;SDS011;1087;50.226;8.682;2023-03-30T16:09:49;3.50;;;1.50;;
2161;SDS011;1087;50.226;8.682;2023-03-30T16:12:18;1.70;;;1.30;;
2161;SDS011;1087;50.226;8.682;2023-03-30T16:14:49;2.83;;;1.50;;
2161;SDS011;1087;50.226;8.682;2023-03-30T16:17:15;3.07;;;1.60;;
2161;SDS011;1087;50.226;8.682;2023-03-30T16:19:41;3.17;;;1.80;;
2161;SDS011;1087;50.226;8.682;2023-03-30T16:22:08;3.70;;;1.30;;
2161;SDS011;1087;50.226;8.682;2023-03-30T16:24:34;1.93;;;1.50;;
2161;SDS011;1087;50.226;8.682;2023-03-30T16:27:01;3.23;;;1.40;;
2161;SDS011;1087;50.226;8.682;2023-03-30T16:29:27;3.13;;;1.80;;
2161;SDS011;1087;50.226;8.682;2023-03-30T16:31:53;1.87;;;1.27;;
2161;SDS011;1087;50.226;8.682;2023-03-30T16:34:18;3.80;;;1.67;;
2161;SDS011;1087;50.226;8.682;2023-03-30T16:36:46;2.93;;;1.33;;
2161;SDS011;1087;50.226;8.682;2023-03-30T16:41:48;2.53;;;1.30;;
2161;SDS011;1087;50.226;8.682;2023-03-30T16:44:16;4.87;;;2.00;;
2161;SDS011;1087;50.226;8.682;2023-03-30T16:46:42;4.05;;;1.50;;
2161;SDS011;1087;50.226;8.682;2023-03-30T16:49:18;2.50;;;1.23;;
2161;SDS011;1087;50.226;8.682;2023-03-30T16:51:46;4.03;;;1.23;;
2161;SDS011;1087;50.226;8.682;2023-03-30T16:54:12;3.47;;;1.27;;
2161;SDS011;1087;50.226;8.682;2023-03-30T16:56:38;8.30;;;2.00;;
2161;SDS011;1087;50.226;8.682;2023-03-30T16:59:04;3.70;;;1.20;;
2161;SDS011;1087;50.226;8.682;2023-03-30T17:01:34;1.57;;;1.20;;
2161;SDS011;1087;50.226;8.682;2023-03-30T17:04:00;2.27;;;1.63;;
2161;SDS011;1087;50.226;8.682;2023-03-30T17:06:27;4.60;;;1.33;;
2161;SDS011;1087;50.226;8.682;2023-03-30T17:08:52;2.47;;;1.40;;
2161;SDS011;1087;50.226;8.682;2023-03-30T17:11:19;2.90;;;1.47;;
2161;SDS011;1087;50.226;8.682;2023-03-30T17:13:45;5.23;;;1.50;;
2161;SDS011;1087;50.226;8.682;2023-03-30T17:16:12;2.50;;;1.30;;
2161;SDS011;1087;50.226;8.682;2023-03-30T17:18:38;3.50;;;1.57;;
2161;SDS011;1087;50.226;8.682;2023-03-30T17:21:04;2.30;;;1.37;;
2161;SDS011;1087;50.226;8.682;2023-03-30T17:23:33;2.20;;;1.57;;
2161;SDS011;1087;50.226;8.682;2023-03-30T17:25:58;3.10;;;1.50;;
2161;SDS011;1087;50.226;8.682;2023-03-30T17:30:53;3.50;;;1.70;;
2161;SDS011;1087;50.226;8.682;2023-03-30T17:33:20;5.00;;;1.43;;
2161;SDS011;1087;50.226;8.682;2023-03-30T17:35:50;4.03;;;1.10;;
2161;SDS011;1087;50.226;8.682;2023-03-30T17:38:20;6.40;;;1.37;;
2161;SDS011;1087;50.226;8.682;2023-03-30T17:40:46;3.43;;;1.50;;
2161;SDS011;1087;50.226;8.682;2023-03-30T17:43:12;3.03;;;1.33;;
2161;SDS011;1087;50.226;8.682;2023-03-30T17:45:38;2.33;;;1.60;;
2161;SDS011;1087;50.226;8.682;2023-03-30T17:48:05;4.00;;;1.70;;
2161;SDS011;1087;50.226;8.682;2023-03-30T17:50:36;5.00;;;1.70;;
2161;SDS011;1087;50.226;8.682;2023-03-30T17:53:03;2.90;;;1.77;;
2161;SDS011;1087;50.226;8.682;2023-03-30T17:55:30;5.40;;;1.63;;
2161;SDS011;1087;50.226;8.682;2023-03-30T17:57:57;1.70;;;1.30;;
2161;SDS011;1087;50.226;8.682;2023-03-30T18:00:27;2.70;;;1.60;;
2161;SDS011;1087;50.226;8.682;2023-03-30T18:02:55;4.80;;;1.60;;